createdAt,value
2023-03-02T00:00:57.584Z,20.30
2023-03-02T00:04:57.779Z,20.29
2023-03-02T00:08:57.766Z,20.29
2023-03-02T00:12:57.852Z,20.28
2023-03-02T00:16:58.013Z,20.27
2023-03-02T00:20:58.171Z,20.26
2023-03-02T00:24:58.291Z,20.25
2023-03-02T00:28:58.330Z,20.26
2023-03-02T00:32:58.465Z,20.24
2023-03-02T00:36:58.482Z,20.24
2023-03-02T00:40:58.536Z,20.23
2023-03-02T00:44:58.615Z,20.22
2023-03-02T00:48:58.657Z,20.22
2023-03-02T00:52:58.669Z,20.22
2023-03-02T00:56:58.737Z,20.21
2023-03-02T01:00:58.808Z,20.21
2023-03-02T01:04:58.789Z,20.20
2023-03-02T01:08:58.836Z,20.19
2023-03-02T01:12:58.900Z,20.18
2023-03-02T01:16:58.884Z,20.17
2023-03-02T01:20:58.943Z,20.17
2023-03-02T01:24:58.961Z,20.16
2023-03-02T01:28:58.979Z,20.15
2023-03-02T01:32:59.014Z,20.14
2023-03-02T01:36:58.999Z,20.13
2023-03-02T01:40:58.942Z,20.13
2023-03-02T01:44:58.956Z,20.14
2023-03-02T01:48:58.942Z,20.13
2023-03-02T01:52:58.934Z,20.13
2023-03-02T01:56:59.004Z,20.12
2023-03-02T02:00:58.971Z,20.12
2023-03-02T02:04:58.922Z,20.11
2023-03-02T02:08:58.894Z,20.10
2023-03-02T02:12:58.868Z,20.10
2023-03-02T02:16:58.933Z,20.10
2023-03-02T02:20:58.855Z,20.08
2023-03-02T02:24:58.857Z,20.09
2023-03-02T02:28:58.905Z,20.08
2023-03-02T02:32:58.793Z,20.07
2023-03-02T02:36:58.778Z,20.07
2023-03-02T02:40:58.806Z,20.06
2023-03-02T02:44:58.875Z,20.05
2023-03-02T02:48:58.800Z,20.05
2023-03-02T02:52:58.770Z,20.03
2023-03-02T02:56:58.771Z,20.03
2023-03-02T03:00:58.875Z,20.03
2023-03-02T03:04:58.841Z,20.02
2023-03-02T03:08:58.858Z,20.03
2023-03-02T03:12:58.836Z,20.01
2023-03-02T03:16:58.936Z,20.01
2023-03-02T03:20:58.882Z,20.01
2023-03-02T03:24:58.902Z,20.00
2023-03-02T03:28:58.936Z,20.01
2023-03-02T03:32:58.960Z,19.99
2023-03-02T03:36:58.985Z,19.99
2023-03-02T03:40:58.999Z,19.98
2023-03-02T03:44:59.024Z,19.97
2023-03-02T03:48:59.051Z,19.98
2023-03-02T03:52:58.976Z,19.96
2023-03-02T03:56:58.984Z,19.96
2023-03-02T04:00:58.996Z,19.95
2023-03-02T04:04:58.955Z,19.94
2023-03-02T04:08:58.934Z,19.94
2023-03-02T04:12:58.943Z,19.94
2023-03-02T04:16:58.919Z,19.94
2023-03-02T04:20:58.924Z,19.93
2023-03-02T04:24:58.886Z,19.93
2023-03-02T04:28:58.882Z,19.92
2023-03-02T04:32:58.887Z,19.92
2023-03-02T04:36:58.865Z,19.92
2023-03-02T04:40:58.828Z,19.92
2023-03-02T04:44:58.860Z,19.91
2023-03-02T04:48:58.809Z,19.90
2023-03-02T04:52:58.878Z,19.89
2023-03-02T04:56:58.785Z,19.88
2023-03-02T05:00:58.742Z,19.89
2023-03-02T05:04:58.732Z,19.89
2023-03-02T05:08:58.681Z,19.87
2023-03-02T05:12:58.672Z,19.87
2023-03-02T05:16:58.698Z,19.86
2023-03-02T05:20:58.645Z,19.86
2023-03-02T05:24:58.666Z,19.85
2023-03-02T05:28:58.632Z,19.85
2023-03-02T05:32:58.637Z,19.86
2023-03-02T05:36:58.606Z,19.84
2023-03-02T05:40:58.602Z,19.85
2023-03-02T05:44:58.619Z,19.83
2023-03-02T05:48:58.582Z,19.83
2023-03-02T05:52:58.585Z,19.86
2023-03-02T05:56:58.555Z,19.86
2023-03-02T06:00:58.551Z,19.86
2023-03-02T06:04:58.531Z,19.87
2023-03-02T06:08:58.555Z,19.88
2023-03-02T06:12:58.495Z,19.90
2023-03-02T06:16:58.574Z,19.91
2023-03-02T06:20:58.479Z,19.92
2023-03-02T06:24:58.460Z,19.93
2023-03-02T06:28:58.876Z,19.94
2023-03-02T06:32:58.424Z,19.97
2023-03-02T06:36:58.468Z,19.99
2023-03-02T06:40:58.439Z,20.01
2023-03-02T06:44:58.595Z,20.07
2023-03-02T06:48:58.613Z,20.14
2023-03-02T06:52:58.662Z,20.24
2023-03-02T06:56:58.534Z,20.29
2023-03-02T07:00:59.140Z,20.37
2023-03-02T07:04:58.874Z,20.46
2023-03-02T07:08:59.113Z,20.53
2023-03-02T07:12:58.778Z,20.60
2023-03-02T07:16:58.800Z,20.66
2023-03-02T07:20:58.706Z,20.72
2023-03-02T07:24:58.674Z,20.77
2023-03-02T07:28:59.107Z,20.79
2023-03-02T07:32:58.613Z,20.81
2023-03-02T07:36:58.545Z,20.82
2023-03-02T07:40:58.630Z,20.89
2023-03-02T07:44:58.493Z,20.94
2023-03-02T07:48:58.511Z,20.97
2023-03-02T07:52:59.935Z,21.07
2023-03-02T07:56:59.147Z,21.23
2023-03-02T08:00:58.651Z,21.35
2023-03-02T08:04:58.634Z,21.51
2023-03-02T08:08:58.796Z,21.68
2023-03-02T08:12:58.730Z,21.72
2023-03-02T08:16:58.733Z,21.85
2023-03-02T08:20:58.694Z,21.82
2023-03-02T08:24:58.617Z,21.80
2023-03-02T08:28:58.607Z,21.82
2023-03-02T08:32:58.988Z,21.82
2023-03-02T08:36:58.555Z,21.85
2023-03-02T08:40:58.622Z,21.89
2023-03-02T08:44:58.688Z,21.95
2023-03-02T08:48:58.635Z,21.95
2023-03-02T08:52:58.411Z,21.88
2023-03-02T08:56:58.666Z,21.90
2023-03-02T09:00:58.726Z,21.90
2023-03-02T09:04:59.219Z,21.91
2023-03-02T09:08:58.934Z,22.00
2023-03-02T09:12:58.995Z,22.44
2023-03-02T09:16:59.178Z,22.80
2023-03-02T09:20:59.653Z,23.01
2023-03-02T09:24:59.333Z,23.47
2023-03-02T09:28:59.498Z,23.93
2023-03-02T09:32:59.609Z,23.95
2023-03-02T09:36:59.724Z,23.04
2023-03-02T09:40:59.683Z,23.33
2023-03-02T09:44:59.335Z,23.83
2023-03-02T09:48:59.688Z,24.09
2023-03-02T09:52:59.686Z,24.04
2023-03-02T09:56:59.669Z,24.08
2023-03-02T10:00:59.178Z,24.54
2023-03-02T10:04:59.151Z,24.56
2023-03-02T10:08:59.129Z,24.46
2023-03-02T10:12:59.137Z,24.27
2023-03-02T10:16:59.184Z,24.05
2023-03-02T10:20:59.312Z,23.86
2023-03-02T10:24:59.403Z,23.62
2023-03-02T10:28:59.752Z,23.06
2023-03-02T10:32:59.719Z,22.94
2023-03-02T10:36:59.443Z,22.74
2023-03-02T10:40:59.706Z,22.50
2023-03-02T10:44:59.720Z,22.26
2023-03-02T10:49:00.201Z,21.83
2023-03-02T10:53:01.556Z,21.62
2023-03-02T10:56:59.917Z,21.83
2023-03-02T11:00:59.918Z,22.00
2023-03-02T11:05:00.295Z,22.13
2023-03-02T11:08:59.791Z,22.21
2023-03-02T11:12:59.767Z,22.22
2023-03-02T11:17:01.376Z,22.25
2023-03-02T11:20:59.716Z,22.28
2023-03-02T11:24:59.638Z,22.29
2023-03-02T11:28:59.583Z,22.29
2023-03-02T11:32:59.684Z,22.25
2023-03-02T11:37:00.204Z,22.21
2023-03-02T11:41:00.235Z,22.10
2023-03-02T11:45:00.004Z,22.11
2023-03-02T11:49:00.212Z,22.15
2023-03-02T11:53:00.212Z,22.13
2023-03-02T11:57:00.689Z,22.21
2023-03-02T12:01:00.368Z,22.28
2023-03-02T12:05:00.428Z,22.32
2023-03-02T12:09:00.452Z,22.34
2023-03-02T12:13:00.718Z,22.37
2023-03-02T12:17:00.473Z,22.39
2023-03-02T12:21:00.413Z,22.40
2023-03-02T12:25:00.718Z,22.42
2023-03-02T12:29:00.705Z,22.42
2023-03-02T12:33:00.746Z,22.45
2023-03-02T12:37:00.434Z,22.36
2023-03-02T12:41:00.742Z,22.23
2023-03-02T12:45:00.785Z,22.21
2023-03-02T12:49:00.601Z,22.09
2023-03-02T12:53:00.766Z,22.02
2023-03-02T12:57:00.822Z,22.00
2023-03-02T13:01:01.020Z,22.00
2023-03-02T13:05:01.238Z,21.99
2023-03-02T13:09:01.410Z,21.94
2023-03-02T13:13:01.496Z,21.93
2023-03-02T13:17:01.821Z,21.92
2023-03-02T13:21:02.257Z,21.93
2023-03-02T13:25:01.939Z,21.86
2023-03-02T13:29:02.251Z,21.83
2023-03-02T13:33:02.756Z,21.81
2023-03-02T13:37:02.593Z,21.82
2023-03-02T13:41:02.799Z,21.91
2023-03-02T13:45:03.011Z,21.86
2023-03-02T13:49:10.113Z,21.87
2023-03-02T13:53:04.185Z,21.86
2023-03-02T13:57:03.142Z,21.74
2023-03-02T14:01:03.117Z,21.75
2023-03-02T14:05:03.194Z,21.74
2023-03-02T14:09:03.036Z,21.73
2023-03-02T14:13:03.034Z,21.69
2023-03-02T14:17:02.961Z,21.65
2023-03-02T14:21:03.314Z,21.65
2023-03-02T14:25:02.892Z,21.63
2023-03-02T14:29:05.811Z,21.62
2023-03-02T14:33:02.788Z,21.60
2023-03-02T14:37:02.798Z,21.60
2023-03-02T14:41:03.316Z,21.57
2023-03-02T14:45:02.749Z,21.54
2023-03-02T14:49:02.648Z,21.53
2023-03-02T14:57:21.806Z,21.47
2023-03-02T15:01:21.831Z,21.41
2023-03-02T15:05:21.716Z,21.35
2023-03-02T15:09:22.015Z,21.32
2023-03-02T15:13:22.006Z,21.28
2023-03-02T15:17:22.049Z,21.24
2023-03-02T15:21:21.549Z,21.24
2023-03-02T15:25:21.537Z,21.23
2023-03-02T15:29:21.495Z,21.19
2023-03-02T15:33:21.486Z,21.15
2023-03-02T15:37:21.433Z,21.14
2023-03-02T15:41:21.413Z,21.09
2023-03-02T15:45:21.353Z,21.06
2023-03-02T15:49:21.307Z,21.06
2023-03-02T15:53:21.314Z,21.04
2023-03-02T15:57:21.260Z,21.02
2023-03-02T16:01:21.232Z,20.99
2023-03-02T16:05:21.181Z,20.96
2023-03-02T16:09:21.132Z,20.95
2023-03-02T16:13:21.118Z,20.92
2023-03-02T16:17:21.058Z,20.90
2023-03-02T16:21:21.050Z,20.90
2023-03-02T16:25:21.011Z,20.90
2023-03-02T16:29:20.971Z,20.89
2023-03-02T16:33:20.922Z,20.86
2023-03-02T16:37:21.065Z,20.81
2023-03-02T16:41:21.052Z,20.80
2023-03-02T16:45:21.101Z,20.79
2023-03-02T16:49:21.206Z,20.73
2023-03-02T16:53:21.297Z,20.70
2023-03-02T16:57:21.374Z,20.66
2023-03-02T17:01:21.614Z,20.58
2023-03-02T17:05:21.695Z,20.55
2023-03-02T17:09:21.766Z,20.44
2023-03-02T17:13:21.916Z,20.40
2023-03-02T17:17:22.131Z,20.35
2023-03-02T17:21:22.307Z,20.23
2023-03-02T17:25:22.533Z,20.21
2023-03-02T17:29:22.536Z,20.17
2023-03-02T17:33:22.466Z,20.15
2023-03-02T17:37:22.445Z,20.11
2023-03-02T17:41:22.362Z,20.06
2023-03-02T17:45:22.350Z,20.00
2023-03-02T17:49:22.285Z,19.92
2023-03-02T17:53:22.258Z,19.93
2023-03-02T17:57:22.250Z,19.90
2023-03-02T18:01:22.180Z,19.84
2023-03-02T18:05:22.202Z,19.66
2023-03-02T18:09:22.215Z,19.49
2023-03-02T18:13:22.186Z,19.33
2023-03-02T18:17:22.258Z,19.19
2023-03-02T18:21:22.344Z,19.16
2023-03-02T18:25:22.478Z,19.04
2023-03-02T18:29:22.658Z,18.95
2023-03-02T18:33:22.759Z,18.87
2023-03-02T18:37:22.942Z,18.78
2023-03-02T18:41:23.157Z,18.78
2023-03-02T18:45:23.364Z,18.71
2023-03-02T18:49:23.323Z,18.70
2023-03-02T18:53:23.308Z,18.62
2023-03-02T18:57:23.280Z,18.50
2023-03-02T19:01:23.237Z,18.42
2023-03-02T19:05:24.106Z,18.35
2023-03-02T19:09:23.162Z,18.32
2023-03-02T19:13:23.110Z,18.33
2023-03-02T19:17:23.121Z,18.30
2023-03-02T19:21:23.066Z,18.18
2023-03-02T19:25:23.059Z,18.16
2023-03-02T19:29:23.013Z,18.12
2023-03-02T19:33:23.003Z,18.03
2023-03-02T19:37:22.931Z,18.10
2023-03-02T19:41:22.898Z,17.99
2023-03-02T19:45:22.902Z,17.92
2023-03-02T19:49:22.815Z,17.88
2023-03-02T19:53:22.769Z,17.82
2023-03-02T19:57:22.753Z,17.79
2023-03-02T20:01:22.750Z,17.84
2023-03-02T20:05:22.683Z,17.81
2023-03-02T20:09:22.636Z,17.77
2023-03-02T20:13:22.635Z,17.76
2023-03-02T20:17:22.754Z,17.69
2023-03-02T20:21:22.927Z,17.62
2023-03-02T20:25:23.029Z,17.61
2023-03-02T20:29:23.195Z,17.64
2023-03-02T20:33:23.290Z,17.50
2023-03-02T20:37:23.466Z,17.41
2023-03-02T20:41:23.614Z,17.35
2023-03-02T20:45:23.801Z,17.27
2023-03-02T20:49:24.002Z,17.26
2023-03-02T20:53:24.259Z,17.25
2023-03-02T20:57:24.213Z,17.26
2023-03-02T21:01:24.218Z,17.21
2023-03-02T21:05:24.091Z,17.18
2023-03-02T21:09:24.077Z,17.11
2023-03-02T21:13:24.041Z,17.07
2023-03-02T21:17:24.026Z,16.97
2023-03-02T21:21:32.624Z,16.96
2023-03-02T21:25:24.938Z,16.91
2023-03-02T21:29:23.872Z,16.91
2023-03-02T21:33:23.848Z,16.86
2023-03-02T21:37:23.833Z,16.78
2023-03-02T21:41:23.774Z,16.78
2023-03-02T21:45:23.760Z,16.78
2023-03-02T21:49:23.737Z,16.74
2023-03-02T21:53:23.701Z,16.74
2023-03-02T21:57:23.637Z,16.76
2023-03-02T22:01:23.630Z,16.69
2023-03-02T22:05:23.678Z,16.59
2023-03-02T22:09:23.736Z,16.57
2023-03-02T22:13:23.807Z,16.54
2023-03-02T22:17:24.839Z,16.54
2023-03-02T22:21:24.005Z,16.47
2023-03-02T22:25:24.076Z,16.46
2023-03-02T22:29:24.201Z,16.46
2023-03-02T22:33:24.284Z,16.44
2023-03-02T22:37:24.409Z,16.40
2023-03-02T22:41:24.584Z,16.36
2023-03-02T22:45:24.727Z,16.30
2023-03-02T22:49:24.866Z,16.29
2023-03-02T22:53:25.093Z,16.30
2023-03-02T22:57:25.285Z,16.24
2023-03-02T23:01:25.288Z,16.19
2023-03-02T23:05:25.278Z,16.17
2023-03-02T23:09:25.184Z,16.17
2023-03-02T23:13:27.279Z,16.13
2023-03-02T23:17:25.149Z,16.13
2023-03-02T23:21:26.218Z,16.09
2023-03-02T23:25:25.686Z,16.02
2023-03-02T23:29:25.242Z,15.96
2023-03-02T23:33:25.441Z,15.96
2023-03-02T23:37:25.621Z,15.88
2023-03-02T23:41:25.610Z,15.87
2023-03-02T23:45:25.530Z,15.82
2023-03-02T23:49:25.535Z,15.84
2023-03-02T23:53:25.487Z,15.89
2023-03-02T23:57:25.417Z,15.91
